sensor_id;sensor_type;location;lat;lon;timestamp;temperature;humidity
38500;DHT22;24269;51.894;4.622;2022-10-01T00:00:58;11.90;99.90
38500;DHT22;24269;51.894;4.622;2022-10-01T00:03:26;11.90;99.90
38500;DHT22;24269;51.894;4.622;2022-10-01T00:06:03;11.90;99.90
38500;DHT22;24269;51.894;4.622;2022-10-01T00:08:30;11.90;99.90
38500;DHT22;24269;51.894;4.622;2022-10-01T00:10:56;11.80;99.90
38500;DHT22;24269;51.894;4.622;2022-10-01T00:13:25;11.80;99.90
38500;DHT22;24269;51.894;4.622;2022-10-01T00:15:50;11.80;99.90
38500;DHT22;24269;51.894;4.622;2022-10-01T00:18:16;11.80;99.90
38500;DHT22;24269;51.894;4.622;2022-10-01T00:20:42;11.80;99.90
38500;DHT22;24269;51.894;4.622;2022-10-01T00:23:12;11.80;99.90
38500;DHT22;24269;51.894;4.622;2022-10-01T00:25:39;11.80;99.90
38500;DHT22;24269;51.894;4.622;2022-10-01T00:28:05;11.80;99.90
38500;DHT22;24269;51.894;4.622;2022-10-01T00:30:31;11.80;99.90
38500;DHT22;24269;51.894;4.622;2022-10-01T00:32:56;11.80;99.90
38500;DHT22;24269;51.894;4.622;2022-10-01T00:35:22;11.80;99.90
38500;DHT22;24269;51.894;4.622;2022-10-01T00:37:49;11.80;99.90
38500;DHT22;24269;51.894;4.622;2022-10-01T00:40:21;11.80;99.90
38500;DHT22;24269;51.894;4.622;2022-10-01T00:42:48;11.80;99.90
38500;DHT22;24269;51.894;4.622;2022-10-01T00:45:15;11.80;99.90
38500;DHT22;24269;51.894;4.622;2022-10-01T00:47:48;11.80;99.90
38500;DHT22;24269;51.894;4.622;2022-10-01T00:50:25;11.80;99.90
38500;DHT22;24269;51.894;4.622;2022-10-01T00:52:59;11.80;99.90
38500;DHT22;24269;51.894;4.622;2022-10-01T00:55:47;11.80;99.90
38500;DHT22;24269;51.894;4.622;2022-10-01T00:58:16;11.80;99.90
38500;DHT22;24269;51.894;4.622;2022-10-01T01:00:43;11.80;99.90
38500;DHT22;24269;51.894;4.622;2022-10-01T01:03:09;11.80;99.90
38500;DHT22;24269;51.894;4.622;2022-10-01T01:05:35;11.80;99.90
38500;DHT22;24269;51.894;4.622;2022-10-01T01:08:01;11.90;99.90
38500;DHT22;24269;51.894;4.622;2022-10-01T01:13:02;11.90;99.90
38500;DHT22;24269;51.894;4.622;2022-10-01T01:15:44;11.90;99.90
38500;DHT22;24269;51.894;4.622;2022-10-01T01:18:40;11.90;99.90
38500;DHT22;24269;51.894;4.622;2022-10-01T01:21:17;11.90;99.90
38500;DHT22;24269;51.894;4.622;2022-10-01T01:29:19;12.00;99.90
38500;DHT22;24269;51.894;4.622;2022-10-01T01:31:48;12.00;99.90
38500;DHT22;24269;51.894;4.622;2022-10-01T01:34:19;12.00;99.90
38500;DHT22;24269;51.894;4.622;2022-10-01T01:36:59;12.00;99.90
38500;DHT22;24269;51.894;4.622;2022-10-01T01:39:29;12.00;99.90
38500;DHT22;24269;51.894;4.622;2022-10-01T01:41:59;12.00;99.90
38500;DHT22;24269;51.894;4.622;2022-10-01T01:44:32;12.00;99.90
38500;DHT22;24269;51.894;4.622;2022-10-01T01:47:00;12.10;99.90
38500;DHT22;24269;51.894;4.622;2022-10-01T01:49:28;12.00;99.90
38500;DHT22;24269;51.894;4.622;2022-10-01T01:52:02;12.10;99.90
38500;DHT22;24269;51.894;4.622;2022-10-01T01:54:29;12.10;99.90
38500;DHT22;24269;51.894;4.622;2022-10-01T01:56:56;12.10;99.90
38500;DHT22;24269;51.894;4.622;2022-10-01T01:59:24;12.10;99.90
38500;DHT22;24269;51.894;4.622;2022-10-01T02:01:50;12.10;99.90
38500;DHT22;24269;51.894;4.622;2022-10-01T02:04:23;12.20;99.90
38500;DHT22;24269;51.894;4.622;2022-10-01T02:07:10;12.20;99.90
38500;DHT22;24269;51.894;4.622;2022-10-01T02:10:09;12.20;99.90
38500;DHT22;24269;51.894;4.622;2022-10-01T02:18:12;12.20;99.90
38500;DHT22;24269;51.894;4.622;2022-10-01T02:20:55;12.30;99.90
38500;DHT22;24269;51.894;4.622;2022-10-01T02:23:29;12.30;99.90
38500;DHT22;24269;51.894;4.622;2022-10-01T02:25:58;12.30;99.90
38500;DHT22;24269;51.894;4.622;2022-10-01T02:28:27;12.30;99.90
38500;DHT22;24269;51.894;4.622;2022-10-01T02:30:55;12.30;99.90
38500;DHT22;24269;51.894;4.622;2022-10-01T02:33:25;12.30;99.90
38500;DHT22;24269;51.894;4.622;2022-10-01T02:35:53;12.30;99.90
38500;DHT22;24269;51.894;4.622;2022-10-01T02:38:22;12.40;99.90
38500;DHT22;24269;51.894;4.622;2022-10-01T02:40:50;12.40;99.90
38500;DHT22;24269;51.894;4.622;2022-10-01T02:43:19;12.40;99.90
38500;DHT22;24269;51.894;4.622;2022-10-01T02:45:50;12.40;99.90
38500;DHT22;24269;51.894;4.622;2022-10-01T02:48:19;12.40;99.90
38500;DHT22;24269;51.894;4.622;2022-10-01T02:50:56;12.40;99.90
38500;DHT22;24269;51.894;4.622;2022-10-01T02:53:42;12.50;99.90
38500;DHT22;24269;51.894;4.622;2022-10-01T02:56:12;12.50;99.90
38500;DHT22;24269;51.894;4.622;2022-10-01T02:58:39;12.50;99.90
38500;DHT22;24269;51.894;4.622;2022-10-01T03:01:07;12.50;99.90
38500;DHT22;24269;51.894;4.622;2022-10-01T03:03:32;12.50;99.90
38500;DHT22;24269;51.894;4.622;2022-10-01T03:05:58;12.50;99.90
38500;DHT22;24269;51.894;4.622;2022-10-01T03:08:23;12.60;99.90
38500;DHT22;24269;51.894;4.622;2022-10-01T03:10:49;12.60;99.90
38500;DHT22;24269;51.894;4.622;2022-10-01T03:13:15;12.60;99.90
38500;DHT22;24269;51.894;4.622;2022-10-01T03:15:45;12.60;99.90
38500;DHT22;24269;51.894;4.622;2022-10-01T03:18:10;12.70;99.90
38500;DHT22;24269;51.894;4.622;2022-10-01T03:20:36;12.70;99.90
38500;DHT22;24269;51.894;4.622;2022-10-01T03:23:01;12.70;99.90
38500;DHT22;24269;51.894;4.622;2022-10-01T03:25:27;12.70;99.90
38500;DHT22;24269;51.894;4.622;2022-10-01T03:27:52;12.80;99.90
38500;DHT22;24269;51.894;4.622;2022-10-01T03:30:18;12.80;99.90
38500;DHT22;24269;51.894;4.622;2022-10-01T03:32:43;12.80;99.90
38500;DHT22;24269;51.894;4.622;2022-10-01T03:35:09;12.90;99.90
38500;DHT22;24269;51.894;4.622;2022-10-01T03:37:35;12.90;99.90
38500;DHT22;24269;51.894;4.622;2022-10-01T03:40:01;12.90;99.90
38500;DHT22;24269;51.894;4.622;2022-10-01T03:42:26;13.00;99.90
38500;DHT22;24269;51.894;4.622;2022-10-01T03:44:52;12.90;99.90
38500;DHT22;24269;51.894;4.622;2022-10-01T03:47:18;13.00;99.90
38500;DHT22;24269;51.894;4.622;2022-10-01T03:49:43;13.00;99.90
38500;DHT22;24269;51.894;4.622;2022-10-01T03:52:09;13.00;99.90
38500;DHT22;24269;51.894;4.622;2022-10-01T03:54:34;13.00;99.90
38500;DHT22;24269;51.894;4.622;2022-10-01T03:57:00;13.10;99.90
38500;DHT22;24269;51.894;4.622;2022-10-01T03:59:25;13.10;99.90
38500;DHT22;24269;51.894;4.622;2022-10-01T04:01:52;13.10;99.90
38500;DHT22;24269;51.894;4.622;2022-10-01T04:04:18;13.10;99.90
38500;DHT22;24269;51.894;4.622;2022-10-01T04:06:43;13.20;99.90
38500;DHT22;24269;51.894;4.622;2022-10-01T04:09:09;13.20;99.90
38500;DHT22;24269;51.894;4.622;2022-10-01T04:11:35;13.20;99.90
38500;DHT22;24269;51.894;4.622;2022-10-01T04:14:01;13.10;99.90
38500;DHT22;24269;51.894;4.622;2022-10-01T04:16:27;13.20;99.90
38500;DHT22;24269;51.894;4.622;2022-10-01T04:18:53;13.20;99.90
38500;DHT22;24269;51.894;4.622;2022-10-01T04:21:19;13.30;99.90
38500;DHT22;24269;51.894;4.622;2022-10-01T04:23:44;13.30;99.90
38500;DHT22;24269;51.894;4.622;2022-10-01T04:26:10;13.30;99.90
38500;DHT22;24269;51.894;4.622;2022-10-01T04:28:36;13.30;99.90
38500;DHT22;24269;51.894;4.622;2022-10-01T04:31:02;13.40;99.90
38500;DHT22;24269;51.894;4.622;2022-10-01T04:33:46;13.40;99.90
38500;DHT22;24269;51.894;4.622;2022-10-01T04:36:11;13.40;99.90
38500;DHT22;24269;51.894;4.622;2022-10-01T04:38:37;13.40;99.90
38500;DHT22;24269;51.894;4.622;2022-10-01T04:41:03;13.40;99.90
38500;DHT22;24269;51.894;4.622;2022-10-01T04:43:28;13.40;99.90
38500;DHT22;24269;51.894;4.622;2022-10-01T04:45:54;13.40;99.90
38500;DHT22;24269;51.894;4.622;2022-10-01T04:48:19;13.40;99.90
38500;DHT22;24269;51.894;4.622;2022-10-01T04:50:45;13.40;99.90
38500;DHT22;24269;51.894;4.622;2022-10-01T04:53:11;13.30;99.90
38500;DHT22;24269;51.894;4.622;2022-10-01T04:55:37;13.40;99.90
38500;DHT22;24269;51.894;4.622;2022-10-01T04:58:02;13.40;99.90
38500;DHT22;24269;51.894;4.622;2022-10-01T05:00:28;13.50;99.90
38500;DHT22;24269;51.894;4.622;2022-10-01T05:02:54;13.50;99.90
38500;DHT22;24269;51.894;4.622;2022-10-01T05:05:22;13.50;99.90
38500;DHT22;24269;51.894;4.622;2022-10-01T05:07:48;13.50;99.90
38500;DHT22;24269;51.894;4.622;2022-10-01T05:10:17;13.50;99.90
38500;DHT22;24269;51.894;4.622;2022-10-01T05:12:44;13.50;99.90
38500;DHT22;24269;51.894;4.622;2022-10-01T05:15:11;13.60;99.90
38500;DHT22;24269;51.894;4.622;2022-10-01T05:17:37;13.60;99.90
38500;DHT22;24269;51.894;4.622;2022-10-01T05:20:05;13.60;99.90
38500;DHT22;24269;51.894;4.622;2022-10-01T05:22:31;13.60;99.90
38500;DHT22;24269;51.894;4.622;2022-10-01T05:24:58;13.60;99.90
38500;DHT22;24269;51.894;4.622;2022-10-01T05:27:25;13.60;99.90
38500;DHT22;24269;51.894;4.622;2022-10-01T05:29:51;13.50;99.90
38500;DHT22;24269;51.894;4.622;2022-10-01T05:32:17;13.50;99.90
38500;DHT22;24269;51.894;4.622;2022-10-01T05:34:43;13.50;99.90
38500;DHT22;24269;51.894;4.622;2022-10-01T05:37:09;13.50;99.90
38500;DHT22;24269;51.894;4.622;2022-10-01T05:39:36;13.50;99.90
38500;DHT22;24269;51.894;4.622;2022-10-01T05:42:02;13.50;99.90
38500;DHT22;24269;51.894;4.622;2022-10-01T05:44:28;13.40;99.90
38500;DHT22;24269;51.894;4.622;2022-10-01T05:46:54;13.40;99.90
38500;DHT22;24269;51.894;4.622;2022-10-01T05:49:21;13.40;99.90
38500;DHT22;24269;51.894;4.622;2022-10-01T05:51:49;13.30;99.90
38500;DHT22;24269;51.894;4.622;2022-10-01T05:54:14;13.30;99.90
38500;DHT22;24269;51.894;4.622;2022-10-01T05:56:44;13.20;99.90
38500;DHT22;24269;51.894;4.622;2022-10-01T05:59:10;13.20;99.90
38500;DHT22;24269;51.894;4.622;2022-10-01T06:01:36;13.20;99.90
38500;DHT22;24269;51.894;4.622;2022-10-01T06:04:02;13.20;99.90
38500;DHT22;24269;51.894;4.622;2022-10-01T06:06:28;13.20;99.90
38500;DHT22;24269;51.894;4.622;2022-10-01T06:08:53;13.20;99.90
38500;DHT22;24269;51.894;4.622;2022-10-01T06:11:19;13.20;99.90
38500;DHT22;24269;51.894;4.622;2022-10-01T06:13:48;13.20;99.90
38500;DHT22;24269;51.894;4.622;2022-10-01T06:16:14;13.20;99.90
38500;DHT22;24269;51.894;4.622;2022-10-01T06:18:40;13.30;99.90
38500;DHT22;24269;51.894;4.622;2022-10-01T06:21:07;13.40;99.90
38500;DHT22;24269;51.894;4.622;2022-10-01T06:23:33;13.40;99.90
38500;DHT22;24269;51.894;4.622;2022-10-01T06:25:59;13.50;99.90
38500;DHT22;24269;51.894;4.622;2022-10-01T06:28:25;13.50;99.90
38500;DHT22;24269;51.894;4.622;2022-10-01T06:30:51;13.50;99.90
38500;DHT22;24269;51.894;4.622;2022-10-01T06:33:17;13.50;99.90
38500;DHT22;24269;51.894;4.622;2022-10-01T06:35:48;13.60;99.90
38500;DHT22;24269;51.894;4.622;2022-10-01T06:38:16;13.70;99.90
38500;DHT22;24269;51.894;4.622;2022-10-01T06:40:42;13.80;99.90
38500;DHT22;24269;51.894;4.622;2022-10-01T06:43:08;13.90;99.90
38500;DHT22;24269;51.894;4.622;2022-10-01T06:45:36;14.00;99.90
38500;DHT22;24269;51.894;4.622;2022-10-01T06:48:03;14.00;99.90
38500;DHT22;24269;51.894;4.622;2022-10-01T06:50:30;14.10;99.90
38500;DHT22;24269;51.894;4.622;2022-10-01T06:52:57;14.10;99.90
38500;DHT22;24269;51.894;4.622;2022-10-01T06:55:25;14.20;99.90
38500;DHT22;24269;51.894;4.622;2022-10-01T06:57:55;14.20;99.90
38500;DHT22;24269;51.894;4.622;2022-10-01T07:00:22;14.30;99.90
38500;DHT22;24269;51.894;4.622;2022-10-01T07:02:48;14.30;99.90
38500;DHT22;24269;51.894;4.622;2022-10-01T07:05:14;14.30;99.90
38500;DHT22;24269;51.894;4.622;2022-10-01T07:07:40;14.20;99.90
38500;DHT22;24269;51.894;4.622;2022-10-01T07:10:07;14.20;99.90
38500;DHT22;24269;51.894;4.622;2022-10-01T07:12:34;14.20;99.90
38500;DHT22;24269;51.894;4.622;2022-10-01T07:14:59;14.20;99.90
38500;DHT22;24269;51.894;4.622;2022-10-01T07:17:26;14.20;99.90
38500;DHT22;24269;51.894;4.622;2022-10-01T07:19:51;14.30;99.90
38500;DHT22;24269;51.894;4.622;2022-10-01T07:22:17;14.20;99.90
38500;DHT22;24269;51.894;4.622;2022-10-01T07:24:44;14.20;99.90
38500;DHT22;24269;51.894;4.622;2022-10-01T07:27:11;14.10;99.90
38500;DHT22;24269;51.894;4.622;2022-10-01T07:29:37;14.20;99.90
38500;DHT22;24269;51.894;4.622;2022-10-01T07:32:03;14.20;99.90
38500;DHT22;24269;51.894;4.622;2022-10-01T07:34:33;14.30;99.90
38500;DHT22;24269;51.894;4.622;2022-10-01T07:36:59;14.40;99.90
38500;DHT22;24269;51.894;4.622;2022-10-01T07:39:25;14.50;99.90
38500;DHT22;24269;51.894;4.622;2022-10-01T07:41:50;14.70;99.90
38500;DHT22;24269;51.894;4.622;2022-10-01T07:44:17;14.90;99.90
38500;DHT22;24269;51.894;4.622;2022-10-01T07:46:43;15.00;99.90
38500;DHT22;24269;51.894;4.622;2022-10-01T07:49:09;15.10;99.90
38500;DHT22;24269;51.894;4.622;2022-10-01T07:51:35;15.30;99.90
38500;DHT22;24269;51.894;4.622;2022-10-01T07:54:04;15.50;99.90
38500;DHT22;24269;51.894;4.622;2022-10-01T07:56:30;15.70;99.90
38500;DHT22;24269;51.894;4.622;2022-10-01T07:58:57;15.90;99.90
38500;DHT22;24269;51.894;4.622;2022-10-01T08:01:23;15.90;99.90
38500;DHT22;24269;51.894;4.622;2022-10-01T08:03:52;16.00;99.90
38500;DHT22;24269;51.894;4.622;2022-10-01T08:06:19;16.00;99.90
38500;DHT22;24269;51.894;4.622;2022-10-01T08:08:45;16.10;99.90
38500;DHT22;24269;51.894;4.622;2022-10-01T08:11:11;16.40;99.90
38500;DHT22;24269;51.894;4.622;2022-10-01T08:13:39;16.70;99.90
38500;DHT22;24269;51.894;4.622;2022-10-01T08:16:06;16.70;99.90
38500;DHT22;24269;51.894;4.622;2022-10-01T08:18:34;16.60;99.90
38500;DHT22;24269;51.894;4.622;2022-10-01T08:21:00;16.40;99.90
38500;DHT22;24269;51.894;4.622;2022-10-01T08:23:30;16.20;99.90
38500;DHT22;24269;51.894;4.622;2022-10-01T08:26:05;16.10;99.90
38500;DHT22;24269;51.894;4.622;2022-10-01T08:28:35;16.00;99.90
38500;DHT22;24269;51.894;4.622;2022-10-01T08:31:07;16.00;99.90
38500;DHT22;24269;51.894;4.622;2022-10-01T08:33:36;15.90;99.90
38500;DHT22;24269;51.894;4.622;2022-10-01T08:36:03;15.90;99.90
38500;DHT22;24269;51.894;4.622;2022-10-01T08:38:29;15.80;99.90
38500;DHT22;24269;51.894;4.622;2022-10-01T08:40:55;15.80;99.90
38500;DHT22;24269;51.894;4.622;2022-10-01T08:45:53;15.70;99.90
38500;DHT22;24269;51.894;4.622;2022-10-01T08:54:18;15.80;99.90
38500;DHT22;24269;51.894;4.622;2022-10-01T08:56:46;15.80;99.90
38500;DHT22;24269;51.894;4.622;2022-10-01T08:59:39;15.80;99.90
38500;DHT22;24269;51.894;4.622;2022-10-01T09:02:26;15.90;99.90
38500;DHT22;24269;51.894;4.622;2022-10-01T09:04:55;16.20;99.90
38500;DHT22;24269;51.894;4.622;2022-10-01T09:10:42;16.80;99.90
38500;DHT22;24269;51.894;4.622;2022-10-01T09:21:17;17.70;99.90
38500;DHT22;24269;51.894;4.622;2022-10-01T09:24:01;18.10;99.90
38500;DHT22;24269;51.894;4.622;2022-10-01T09:26:28;18.40;99.90
38500;DHT22;24269;51.894;4.622;2022-10-01T09:28:54;18.50;99.90
38500;DHT22;24269;51.894;4.622;2022-10-01T09:31:21;18.40;99.90
38500;DHT22;24269;51.894;4.622;2022-10-01T09:34:02;18.30;99.90
38500;DHT22;24269;51.894;4.622;2022-10-01T09:36:44;18.30;99.90
38500;DHT22;24269;51.894;4.622;2022-10-01T09:41:37;18.20;99.90
38500;DHT22;24269;51.894;4.622;2022-10-01T09:44:03;18.20;99.90
38500;DHT22;24269;51.894;4.622;2022-10-01T09:46:29;18.30;99.90
38500;DHT22;24269;51.894;4.622;2022-10-01T09:48:58;18.40;99.90
38500;DHT22;24269;51.894;4.622;2022-10-01T09:51:33;18.20;99.90
38500;DHT22;24269;51.894;4.622;2022-10-01T09:54:10;18.20;99.90
38500;DHT22;24269;51.894;4.622;2022-10-01T09:56:41;18.20;99.90
38500;DHT22;24269;51.894;4.622;2022-10-01T09:59:13;18.00;99.90
38500;DHT22;24269;51.894;4.622;2022-10-01T10:03:33;17.70;99.90
38500;DHT22;24269;51.894;4.622;2022-10-01T10:05:59;17.50;99.90
38500;DHT22;24269;51.894;4.622;2022-10-01T10:08:29;17.40;99.90
38500;DHT22;24269;51.894;4.622;2022-10-01T10:11:01;17.50;99.90
38500;DHT22;24269;51.894;4.622;2022-10-01T10:13:41;17.70;99.90
38500;DHT22;24269;51.894;4.622;2022-10-01T10:18:55;17.80;99.90
38500;DHT22;24269;51.894;4.622;2022-10-01T10:21:57;17.80;99.90
38500;DHT22;24269;51.894;4.622;2022-10-01T10:24:34;18.00;99.90
38500;DHT22;24269;51.894;4.622;2022-10-01T10:27:03;18.20;99.90
38500;DHT22;24269;51.894;4.622;2022-10-01T10:31:57;18.40;99.90
38500;DHT22;24269;51.894;4.622;2022-10-01T10:34:31;18.50;99.90
38500;DHT22;24269;51.894;4.622;2022-10-01T10:37:02;18.60;99.90
38500;DHT22;24269;51.894;4.622;2022-10-01T10:39:36;18.70;99.90
38500;DHT22;24269;51.894;4.622;2022-10-01T10:42:05;18.90;99.90
38500;DHT22;24269;51.894;4.622;2022-10-01T10:44:34;19.10;99.90
38500;DHT22;24269;51.894;4.622;2022-10-01T10:47:05;19.20;99.90
38500;DHT22;24269;51.894;4.622;2022-10-01T10:49:37;19.20;99.90
38500;DHT22;24269;51.894;4.622;2022-10-01T10:52:18;19.20;99.90
38500;DHT22;24269;51.894;4.622;2022-10-01T10:54:46;19.30;99.90
38500;DHT22;24269;51.894;4.622;2022-10-01T10:59:40;19.40;99.90
38500;DHT22;24269;51.894;4.622;2022-10-01T11:02:15;19.30;99.90
38500;DHT22;24269;51.894;4.622;2022-10-01T11:04:43;19.20;99.90
38500;DHT22;24269;51.894;4.622;2022-10-01T11:07:10;19.10;99.90
38500;DHT22;24269;51.894;4.622;2022-10-01T11:09:53;19.20;99.90
38500;DHT22;24269;51.894;4.622;2022-10-01T11:20:50;19.60;99.90
38500;DHT22;24269;51.894;4.622;2022-10-01T11:31:55;19.60;99.90
38500;DHT22;24269;51.894;4.622;2022-10-01T11:36:57;19.20;99.90
38500;DHT22;24269;51.894;4.622;2022-10-01T11:39:26;19.50;99.90
38500;DHT22;24269;51.894;4.622;2022-10-01T11:42:19;19.90;99.90
38500;DHT22;24269;51.894;4.622;2022-10-01T11:45:01;20.00;99.90
38500;DHT22;24269;51.894;4.622;2022-10-01T11:48:04;19.90;99.90
38500;DHT22;24269;51.894;4.622;2022-10-01T11:50:33;19.60;99.90
38500;DHT22;24269;51.894;4.622;2022-10-01T11:53:25;19.50;99.90
38500;DHT22;24269;51.894;4.622;2022-10-01T11:56:14;19.20;99.90
38500;DHT22;24269;51.894;4.622;2022-10-01T12:01:44;19.30;99.90
38500;DHT22;24269;51.894;4.622;2022-10-01T12:04:33;19.60;99.90
38500;DHT22;24269;51.894;4.622;2022-10-01T12:12:31;20.30;99.90
38500;DHT22;24269;51.894;4.622;2022-10-01T12:15:22;20.20;99.90
38500;DHT22;24269;51.894;4.622;2022-10-01T12:18:30;19.90;99.90
38500;DHT22;24269;51.894;4.622;2022-10-01T12:21:00;19.70;99.90
38500;DHT22;24269;51.894;4.622;2022-10-01T12:23:31;19.70;99.90
38500;DHT22;24269;51.894;4.622;2022-10-01T12:28:32;19.80;99.90
38500;DHT22;24269;51.894;4.622;2022-10-01T12:34:07;19.60;99.90
38500;DHT22;24269;51.894;4.622;2022-10-01T12:36:44;19.60;99.90
38500;DHT22;24269;51.894;4.622;2022-10-01T12:42:52;19.40;99.90
38500;DHT22;24269;51.894;4.622;2022-10-01T12:48:05;19.40;99.90
38500;DHT22;24269;51.894;4.622;2022-10-01T12:53:34;19.40;99.90
38500;DHT22;24269;51.894;4.622;2022-10-01T12:56:11;19.60;99.90
38500;DHT22;24269;51.894;4.622;2022-10-01T12:58:41;19.60;99.90
38500;DHT22;24269;51.894;4.622;2022-10-01T13:01:38;19.50;99.90
38500;DHT22;24269;51.894;4.622;2022-10-01T13:14:55;19.50;99.90
38500;DHT22;24269;51.894;4.622;2022-10-01T13:23:33;20.00;99.90
38500;DHT22;24269;51.894;4.622;2022-10-01T13:26:11;19.90;99.90
38500;DHT22;24269;51.894;4.622;2022-10-01T13:31:38;19.20;99.90
38500;DHT22;24269;51.894;4.622;2022-10-01T13:34:25;18.80;99.90
38500;DHT22;24269;51.894;4.622;2022-10-01T13:36:52;18.60;99.90
38500;DHT22;24269;51.894;4.622;2022-10-01T13:39:22;18.60;99.90
38500;DHT22;24269;51.894;4.622;2022-10-01T13:41:50;18.60;99.90
38500;DHT22;24269;51.894;4.622;2022-10-01T13:44:24;18.60;99.90
38500;DHT22;24269;51.894;4.622;2022-10-01T13:47:03;18.50;99.90
38500;DHT22;24269;51.894;4.622;2022-10-01T13:49:35;18.30;99.90
38500;DHT22;24269;51.894;4.622;2022-10-01T13:52:02;18.10;99.90
38500;DHT22;24269;51.894;4.622;2022-10-01T13:54:45;18.10;99.90
38500;DHT22;24269;51.894;4.622;2022-10-01T13:57:34;18.00;99.90
38500;DHT22;24269;51.894;4.622;2022-10-01T14:03:01;17.60;99.90
38500;DHT22;24269;51.894;4.622;2022-10-01T14:05:30;17.40;99.90
38500;DHT22;24269;51.894;4.622;2022-10-01T14:10:37;17.30;99.90
38500;DHT22;24269;51.894;4.622;2022-10-01T14:13:25;17.30;99.90
38500;DHT22;24269;51.894;4.622;2022-10-01T14:16:11;17.40;99.90
38500;DHT22;24269;51.894;4.622;2022-10-01T14:18:39;17.40;99.90
38500;DHT22;24269;51.894;4.622;2022-10-01T14:26:56;17.60;99.90
38500;DHT22;24269;51.894;4.622;2022-10-01T14:32:28;17.70;99.90
38500;DHT22;24269;51.894;4.622;2022-10-01T14:37:45;18.00;99.90
38500;DHT22;24269;51.894;4.622;2022-10-01T14:40:22;18.00;99.90
38500;DHT22;24269;51.894;4.622;2022-10-01T14:42:59;18.00;99.90
38500;DHT22;24269;51.894;4.622;2022-10-01T14:45:25;17.90;99.90
38500;DHT22;24269;51.894;4.622;2022-10-01T14:50:27;17.70;99.90
38500;DHT22;24269;51.894;4.622;2022-10-01T14:52:54;17.60;99.90
38500;DHT22;24269;51.894;4.622;2022-10-01T14:55:22;17.60;99.90
38500;DHT22;24269;51.894;4.622;2022-10-01T14:57:51;17.50;99.90
38500;DHT22;24269;51.894;4.622;2022-10-01T15:00:21;17.40;99.90
38500;DHT22;24269;51.894;4.622;2022-10-01T15:02:51;17.40;99.90
38500;DHT22;24269;51.894;4.622;2022-10-01T15:07:46;17.40;99.90
38500;DHT22;24269;51.894;4.622;2022-10-01T15:10:16;17.50;99.90
38500;DHT22;24269;51.894;4.622;2022-10-01T15:12:42;17.60;99.90
38500;DHT22;24269;51.894;4.622;2022-10-01T15:15:38;17.70;99.90
38500;DHT22;24269;51.894;4.622;2022-10-01T15:18:06;17.70;99.90
38500;DHT22;24269;51.894;4.622;2022-10-01T15:20:32;17.80;99.90
38500;DHT22;24269;51.894;4.622;2022-10-01T15:22:59;17.80;99.90
38500;DHT22;24269;51.894;4.622;2022-10-01T15:25:27;17.90;99.90
38500;DHT22;24269;51.894;4.622;2022-10-01T15:27:53;17.90;99.90
38500;DHT22;24269;51.894;4.622;2022-10-01T15:30:21;17.90;99.90
38500;DHT22;24269;51.894;4.622;2022-10-01T15:32:49;17.80;99.90
38500;DHT22;24269;51.894;4.622;2022-10-01T15:35:19;17.70;99.90
38500;DHT22;24269;51.894;4.622;2022-10-01T15:37:45;17.60;99.90
38500;DHT22;24269;51.894;4.622;2022-10-01T15:40:27;17.50;99.90
38500;DHT22;24269;51.894;4.622;2022-10-01T15:43:21;17.50;99.90
38500;DHT22;24269;51.894;4.622;2022-10-01T15:48:33;17.40;99.90
38500;DHT22;24269;51.894;4.622;2022-10-01T15:51:06;17.30;99.90
38500;DHT22;24269;51.894;4.622;2022-10-01T15:53:38;17.30;99.90
38500;DHT22;24269;51.894;4.622;2022-10-01T15:56:14;17.30;99.90
38500;DHT22;24269;51.894;4.622;2022-10-01T15:58:45;17.40;99.90
38500;DHT22;24269;51.894;4.622;2022-10-01T16:01:14;17.40;99.90
38500;DHT22;24269;51.894;4.622;2022-10-01T16:06:28;17.30;99.90
38500;DHT22;24269;51.894;4.622;2022-10-01T16:09:21;17.20;99.90
38500;DHT22;24269;51.894;4.622;2022-10-01T16:11:53;17.20;99.90
38500;DHT22;24269;51.894;4.622;2022-10-01T16:19:45;17.00;99.90
38500;DHT22;24269;51.894;4.622;2022-10-01T16:25:13;16.80;99.90
38500;DHT22;24269;51.894;4.622;2022-10-01T16:28:02;16.80;99.90
38500;DHT22;24269;51.894;4.622;2022-10-01T16:30:31;16.80;99.90
38500;DHT22;24269;51.894;4.622;2022-10-01T16:32:59;16.70;99.90
38500;DHT22;24269;51.894;4.622;2022-10-01T16:35:29;16.70;99.90
38500;DHT22;24269;51.894;4.622;2022-10-01T16:37:57;16.60;99.90
38500;DHT22;24269;51.894;4.622;2022-10-01T16:40:25;16.60;99.90
38500;DHT22;24269;51.894;4.622;2022-10-01T16:42:52;16.60;99.90
38500;DHT22;24269;51.894;4.622;2022-10-01T16:45:23;16.60;99.90
38500;DHT22;24269;51.894;4.622;2022-10-01T16:47:51;16.60;99.90
38500;DHT22;24269;51.894;4.622;2022-10-01T16:50:18;16.60;99.90
38500;DHT22;24269;51.894;4.622;2022-10-01T16:52:45;16.50;99.90
38500;DHT22;24269;51.894;4.622;2022-10-01T16:55:30;16.50;99.90
38500;DHT22;24269;51.894;4.622;2022-10-01T16:58:01;16.50;99.90
38500;DHT22;24269;51.894;4.622;2022-10-01T17:00:27;16.40;99.90
38500;DHT22;24269;51.894;4.622;2022-10-01T17:02:54;16.40;99.90
38500;DHT22;24269;51.894;4.622;2022-10-01T17:05:31;16.30;99.90
38500;DHT22;24269;51.894;4.622;2022-10-01T17:07:57;16.30;99.90
38500;DHT22;24269;51.894;4.622;2022-10-01T17:10:26;16.20;99.90
38500;DHT22;24269;51.894;4.622;2022-10-01T17:12:52;16.10;99.90
38500;DHT22;24269;51.894;4.622;2022-10-01T17:15:22;16.10;99.90
38500;DHT22;24269;51.894;4.622;2022-10-01T17:17:52;16.00;99.90
38500;DHT22;24269;51.894;4.622;2022-10-01T17:20:18;15.90;99.90
38500;DHT22;24269;51.894;4.622;2022-10-01T17:22:44;15.90;99.90
38500;DHT22;24269;51.894;4.622;2022-10-01T17:25:15;15.90;99.90
38500;DHT22;24269;51.894;4.622;2022-10-01T17:27:40;15.90;99.90
38500;DHT22;24269;51.894;4.622;2022-10-01T17:30:06;15.90;99.90
38500;DHT22;24269;51.894;4.622;2022-10-01T17:32:32;15.90;99.90
38500;DHT22;24269;51.894;4.622;2022-10-01T17:35:00;15.90;99.90
38500;DHT22;24269;51.894;4.622;2022-10-01T17:37:26;15.80;99.90
38500;DHT22;24269;51.894;4.622;2022-10-01T17:39:51;15.70;99.90
38500;DHT22;24269;51.894;4.622;2022-10-01T17:42:17;15.60;99.90
38500;DHT22;24269;51.894;4.622;2022-10-01T17:44:43;15.50;99.90
38500;DHT22;24269;51.894;4.622;2022-10-01T17:47:09;15.40;99.90
38500;DHT22;24269;51.894;4.622;2022-10-01T17:49:35;15.30;99.90
38500;DHT22;24269;51.894;4.622;2022-10-01T17:52:01;15.20;99.90
38500;DHT22;24269;51.894;4.622;2022-10-01T17:54:26;15.20;99.90
38500;DHT22;24269;51.894;4.622;2022-10-01T17:56:53;15.10;99.90
38500;DHT22;24269;51.894;4.622;2022-10-01T17:59:20;15.00;99.90
38500;DHT22;24269;51.894;4.622;2022-10-01T18:01:45;14.90;99.90
38500;DHT22;24269;51.894;4.622;2022-10-01T18:04:11;14.80;99.90
38500;DHT22;24269;51.894;4.622;2022-10-01T18:06:38;14.80;99.90
38500;DHT22;24269;51.894;4.622;2022-10-01T18:09:04;14.60;99.90
38500;DHT22;24269;51.894;4.622;2022-10-01T18:11:30;14.60;99.90